Hadley, PA (16130)

2:22 PM EDT on August 30, 2014 (GMT -0400)
KE3JP Mike | Change Station
CLOSE
Current Station
Personal Weather Station
Location: Greenville, PA
Elevation: 1145 ft
Nearby Weather Stations

Elev 1145 ft 41.45 °N, 80.40 °W | Updated 2 minutes ago

Mostly Cloudy
Mostly Cloudy
84.4 °F
Feels Like 104 °F
N
10.7
Wind Variable Wind from South
Gusts 14.5 mph

Today
High -- | Low -- °F
--% Chance of Precip.
Yesterday
High -- | Low -- °F
Precip. -- in
6:45 AM 7:57 PM
Waxing Crescent, 23% visible
Pressure 30.05 in
Visibility 9.0 miles
Clouds Few 2900 ft
Few 3500 ft
Mostly Cloudy 10000 ft
Heat Index 104 °F
Dew Point 84 °F
Humidity 99%
Rainfall 0.00 in
Snow Depth Not available.
UV 5 out of 12
Pollen 10.60 out of 12
Air Quality Not available.
Flu Activity Not available.
METAR KGKJ 301753Z AUTO 19008G16KT 130V230 9SM FEW029 FEW035 BKN100 27/20 A3007 RMK AO2 SLP174 T02720200 10289 20178 58013 TSNO

More Conditions Fewer Conditions

Pressure 30.05 in
Visibility 9.0 miles
Clouds Few 2900 ft
Few 3500 ft
Mostly Cloudy 10000 ft
Heat Index 104 °F
Dew Point 84 °F
Humidity 99%
Rainfall 0.00 in
Snow Depth Not available.
UV 5 out of 12
Pollen 10.60 out of 12
Air Quality Not available.
Flu Activity Not available.
METAR KGKJ 301753Z AUTO 19008G16KT 130V230 9SM FEW029 FEW035 BKN100 27/20 A3007 RMK AO2 SLP174 T02720200 10289 20178 58013 TSNO

More Conditions Fewer Conditions

10-Day Weather Forecast

Almanac

Astronomy

Aug. 30, 2014 Rise Set
Actual Time 6:45 AM EDT 7:57 PM EDT
Civil Twilight 6:16 AM EDT 8:25 PM EDT
Nautical Twilight 5:42 AM EDT 8:59 PM EDT
Astronomical Twilight 5:06 AM EDT 9:35 PM EDT
Moon 11:35 AM EDT 10:26 PM EDT
Length of Visible Light 14h 09m
Length of Day
13h 12m
Tomorrow will be 2m 38s shorter.
Waxing Crescent, 23% of the Moon is Illuminated
Today
Waxing Crescent
Sep 2
First Quarter
Sep 8
Full
Sep 15
Last Quarter
Sep 24
New

Today's Extremes

State Highs State Lows

Community

WunderPhotos

Upload Photos

1,748,583 photos uploaded!

WunderBlogs® & News

Nearby

Snow Depth

Station Depth Elevation
No new snow has been reported.

Earthquake Activity

City Distance Mag. Time & Date
No recent earthquake activity has been reported nearby.
Minimum magnitude displayed is 2.5.

Coastal Water Temperatures

Place Temperature
No Stations Reporting

Nearby Weather Stations